CYYJ/YYJ METAR and TAF weather

Enter ICAO airport designator
Station Type Date Time Source
CYYJ METAR 2018/12/12 16:00 UTC NOAA

CYYJ 121600Z 22003KT 160V330 20SM FEW015 FEW055 FEW160 SCT250 02/01 A3015 RMK SC1SC1AC1CI2 SC TR AC TR SLP211


Station Type Date Time Source
CYYJ Decoded METAR 2018/12/12 16:00 UTC NOAA

Victoria Int. Airport, B. C., Canada (CYYJ) 48-39N 123-26W 19M
Dec 12, 2018 - 11:00 AM EST / 2018.12.12 1600 UTC
Wind: from the SW (220 degrees) at 3 MPH (3 KT) (direction variable):0
Visibility: 20 mile(s):0
Sky conditions: partly cloudy
Temperature: 35 F (2 C)
Dew Point: 33 F (1 C)
Relative Humidity: 93%
Pressure (altimeter): 30.15 in. Hg (1020 hPa)
ob: CYYJ 121600Z 22003KT 160V330 20SM FEW015 FEW055 FEW160 SCT250 02/01 A3015 RMK SC1SC1AC1CI2 SC TR AC TR SLP211
cycle: 16

Station Type Date Time Source
CYYJ TAF 2018/12/12 12:39 UTC NOAA

TAF TAF CYYJ 121138Z 1212/1312 25008KT P6SM FEW150 SCT240
FM121500 25010G20KT P6SM SCT040
TEMPO 1215/1219 P6SM -RA BKN040 OVC150
FM121900 19012G22KT P6SM -RA SCT015 OVC040
TEMPO 1219/1309 5SM -SHRA BR BKN015 OVC050
BECMG 1300/1302 15012G22KT
FM130900 17010G20KT 5SM -RA BR OVC020
RMK NXT FCST BY 121800Z


Example: see airport list